sensor_id;sensor_type;location;lat;lon;timestamp;P1;durP1;ratioP1;P2;durP2;ratioP2
56667;SDS011;42542;48.360;10.958;2023-02-21T00:03:16;8.57;;;3.20;;
56667;SDS011;42542;48.360;10.958;2023-02-21T00:06:36;10.55;;;3.20;;
56667;SDS011;42542;48.360;10.958;2023-02-21T00:09:56;7.82;;;2.97;;
56667;SDS011;42542;48.360;10.958;2023-02-21T00:13:16;8.50;;;3.20;;
56667;SDS011;42542;48.360;10.958;2023-02-21T00:16:36;9.52;;;3.35;;
56667;SDS011;42542;48.360;10.958;2023-02-21T00:19:57;8.07;;;3.10;;
56667;SDS011;42542;48.360;10.958;2023-02-21T00:23:18;8.88;;;3.47;;
56667;SDS011;42542;48.360;10.958;2023-02-21T00:26:39;9.35;;;3.63;;
56667;SDS011;42542;48.360;10.958;2023-02-21T00:29:59;9.10;;;3.38;;
56667;SDS011;42542;48.360;10.958;2023-02-21T00:33:19;10.75;;;3.55;;
56667;SDS011;42542;48.360;10.958;2023-02-21T00:36:39;10.60;;;3.67;;
56667;SDS011;42542;48.360;10.958;2023-02-21T00:40:00;8.57;;;3.30;;
56667;SDS011;42542;48.360;10.958;2023-02-21T00:43:26;9.65;;;3.67;;
56667;SDS011;42542;48.360;10.958;2023-02-21T00:46:50;10.13;;;3.50;;
56667;SDS011;42542;48.360;10.958;2023-02-21T00:50:11;9.85;;;3.63;;
56667;SDS011;42542;48.360;10.958;2023-02-21T00:53:32;12.35;;;3.92;;
56667;SDS011;42542;48.360;10.958;2023-02-21T00:56:53;11.15;;;3.80;;
56667;SDS011;42542;48.360;10.958;2023-02-21T01:00:15;8.45;;;3.13;;
56667;SDS011;42542;48.360;10.958;2023-02-21T01:03:38;9.60;;;3.17;;
56667;SDS011;42542;48.360;10.958;2023-02-21T01:06:58;8.80;;;3.20;;
56667;SDS011;42542;48.360;10.958;2023-02-21T01:10:18;11.00;;;3.47;;
56667;SDS011;42542;48.360;10.958;2023-02-21T01:13:39;10.52;;;3.42;;
56667;SDS011;42542;48.360;10.958;2023-02-21T01:17:00;10.38;;;3.78;;
56667;SDS011;42542;48.360;10.958;2023-02-21T01:20:21;11.10;;;4.70;;
56667;SDS011;42542;48.360;10.958;2023-02-21T01:23:41;12.05;;;3.90;;
56667;SDS011;42542;48.360;10.958;2023-02-21T01:27:02;13.45;;;4.45;;
56667;SDS011;42542;48.360;10.958;2023-02-21T01:30:22;12.18;;;4.35;;
56667;SDS011;42542;48.360;10.958;2023-02-21T01:33:43;10.00;;;3.83;;
56667;SDS011;42542;48.360;10.958;2023-02-21T01:37:03;11.05;;;4.13;;
56667;SDS011;42542;48.360;10.958;2023-02-21T01:40:23;9.77;;;3.78;;
56667;SDS011;42542;48.360;10.958;2023-02-21T01:43:55;10.77;;;3.73;;
56667;SDS011;42542;48.360;10.958;2023-02-21T01:47:17;10.55;;;3.63;;
56667;SDS011;42542;48.360;10.958;2023-02-21T01:50:38;9.80;;;3.40;;
56667;SDS011;42542;48.360;10.958;2023-02-21T01:53:58;9.57;;;3.70;;
56667;SDS011;42542;48.360;10.958;2023-02-21T01:57:19;9.88;;;3.60;;
56667;SDS011;42542;48.360;10.958;2023-02-21T02:00:40;10.20;;;3.83;;
56667;SDS011;42542;48.360;10.958;2023-02-21T02:04:01;14.05;;;3.58;;
56667;SDS011;42542;48.360;10.958;2023-02-21T02:07:22;8.98;;;3.15;;
56667;SDS011;42542;48.360;10.958;2023-02-21T02:10:44;10.43;;;4.05;;
56667;SDS011;42542;48.360;10.958;2023-02-21T02:17:48;9.77;;;3.70;;
56667;SDS011;42542;48.360;10.958;2023-02-21T02:24:40;10.13;;;3.90;;
56667;SDS011;42542;48.360;10.958;2023-02-21T02:27:54;9.17;;;3.67;;
56667;SDS011;42542;48.360;10.958;2023-02-21T02:38:03;12.80;;;4.20;;
56667;SDS011;42542;48.360;10.958;2023-02-21T02:41:17;10.75;;;3.80;;
56667;SDS011;42542;48.360;10.958;2023-02-21T02:44:32;10.80;;;3.97;;
56667;SDS011;42542;48.360;10.958;2023-02-21T02:47:39;11.32;;;4.22;;
56667;SDS011;42542;48.360;10.958;2023-02-21T02:50:44;10.77;;;3.93;;
56667;SDS011;42542;48.360;10.958;2023-02-21T02:53:48;9.48;;;3.80;;
56667;SDS011;42542;48.360;10.958;2023-02-21T02:56:50;10.65;;;4.15;;
56667;SDS011;42542;48.360;10.958;2023-02-21T02:59:52;11.40;;;4.20;;
56667;SDS011;42542;48.360;10.958;2023-02-21T03:06:30;11.65;;;4.03;;
56667;SDS011;42542;48.360;10.958;2023-02-21T03:09:56;11.90;;;4.25;;
56667;SDS011;42542;48.360;10.958;2023-02-21T03:13:12;11.43;;;3.95;;
56667;SDS011;42542;48.360;10.958;2023-02-21T03:19:27;11.60;;;4.25;;
56667;SDS011;42542;48.360;10.958;2023-02-21T03:22:33;10.53;;;4.43;;
56667;SDS011;42542;48.360;10.958;2023-02-21T03:25:36;11.35;;;3.97;;
56667;SDS011;42542;48.360;10.958;2023-02-21T03:28:43;11.60;;;4.38;;
56667;SDS011;42542;48.360;10.958;2023-02-21T03:31:52;12.60;;;4.43;;
56667;SDS011;42542;48.360;10.958;2023-02-21T03:34:58;11.98;;;4.85;;
56667;SDS011;42542;48.360;10.958;2023-02-21T03:38:01;13.77;;;4.82;;
56667;SDS011;42542;48.360;10.958;2023-02-21T03:41:04;12.20;;;4.70;;
56667;SDS011;42542;48.360;10.958;2023-02-21T03:44:10;13.15;;;4.75;;
56667;SDS011;42542;48.360;10.958;2023-02-21T03:47:12;12.40;;;4.82;;
56667;SDS011;42542;48.360;10.958;2023-02-21T03:50:14;13.25;;;4.70;;
56667;SDS011;42542;48.360;10.958;2023-02-21T03:53:17;13.47;;;4.83;;
56667;SDS011;42542;48.360;10.958;2023-02-21T03:56:20;12.15;;;4.70;;
56667;SDS011;42542;48.360;10.958;2023-02-21T03:59:49;13.43;;;4.40;;
56667;SDS011;42542;48.360;10.958;2023-02-21T04:02:51;12.27;;;4.77;;
56667;SDS011;42542;48.360;10.958;2023-02-21T04:06:25;11.93;;;4.50;;
56667;SDS011;42542;48.360;10.958;2023-02-21T04:09:29;13.20;;;4.65;;
56667;SDS011;42542;48.360;10.958;2023-02-21T04:12:31;12.55;;;4.80;;
56667;SDS011;42542;48.360;10.958;2023-02-21T04:15:33;14.93;;;4.97;;
56667;SDS011;42542;48.360;10.958;2023-02-21T04:18:35;12.07;;;4.65;;
56667;SDS011;42542;48.360;10.958;2023-02-21T04:21:41;13.57;;;4.55;;
56667;SDS011;42542;48.360;10.958;2023-02-21T04:24:43;13.03;;;4.60;;
56667;SDS011;42542;48.360;10.958;2023-02-21T04:27:49;12.68;;;4.90;;
56667;SDS011;42542;48.360;10.958;2023-02-21T04:30:51;14.90;;;5.10;;
56667;SDS011;42542;48.360;10.958;2023-02-21T04:33:53;13.97;;;5.07;;
56667;SDS011;42542;48.360;10.958;2023-02-21T04:37:12;14.80;;;4.53;;
56667;SDS011;42542;48.360;10.958;2023-02-21T04:40:17;13.95;;;4.97;;
56667;SDS011;42542;48.360;10.958;2023-02-21T04:43:18;11.70;;;4.65;;
56667;SDS011;42542;48.360;10.958;2023-02-21T04:46:22;12.57;;;4.43;;
56667;SDS011;42542;48.360;10.958;2023-02-21T04:49:23;11.90;;;4.80;;
56667;SDS011;42542;48.360;10.958;2023-02-21T04:52:27;11.80;;;4.68;;
56667;SDS011;42542;48.360;10.958;2023-02-21T04:55:29;13.33;;;4.80;;
56667;SDS011;42542;48.360;10.958;2023-02-21T04:58:31;12.07;;;4.72;;
56667;SDS011;42542;48.360;10.958;2023-02-21T05:01:45;13.88;;;5.00;;
56667;SDS011;42542;48.360;10.958;2023-02-21T05:04:48;13.17;;;4.30;;
56667;SDS011;42542;48.360;10.958;2023-02-21T05:07:49;11.98;;;4.55;;
56667;SDS011;42542;48.360;10.958;2023-02-21T05:10:51;12.25;;;4.57;;
56667;SDS011;42542;48.360;10.958;2023-02-21T05:13:55;12.05;;;4.68;;
56667;SDS011;42542;48.360;10.958;2023-02-21T05:16:57;12.35;;;4.85;;
56667;SDS011;42542;48.360;10.958;2023-02-21T05:19:59;12.15;;;4.47;;
56667;SDS011;42542;48.360;10.958;2023-02-21T05:23:02;13.32;;;4.72;;
56667;SDS011;42542;48.360;10.958;2023-02-21T05:26:13;13.17;;;4.80;;
56667;SDS011;42542;48.360;10.958;2023-02-21T05:29:15;13.98;;;4.90;;
56667;SDS011;42542;48.360;10.958;2023-02-21T05:32:18;14.73;;;4.97;;
56667;SDS011;42542;48.360;10.958;2023-02-21T05:35:23;12.50;;;4.80;;
56667;SDS011;42542;48.360;10.958;2023-02-21T05:38:24;11.40;;;4.70;;
56667;SDS011;42542;48.360;10.958;2023-02-21T05:41:27;15.10;;;5.35;;
56667;SDS011;42542;48.360;10.958;2023-02-21T05:44:29;14.05;;;4.68;;
56667;SDS011;42542;48.360;10.958;2023-02-21T05:47:34;12.27;;;4.88;;
56667;SDS011;42542;48.360;10.958;2023-02-21T05:50:36;12.73;;;4.93;;
56667;SDS011;42542;48.360;10.958;2023-02-21T05:53:40;13.43;;;5.20;;
56667;SDS011;42542;48.360;10.958;2023-02-21T05:56:42;12.90;;;4.70;;
56667;SDS011;42542;48.360;10.958;2023-02-21T05:59:46;13.98;;;4.88;;
56667;SDS011;42542;48.360;10.958;2023-02-21T06:02:51;13.40;;;5.20;;
56667;SDS011;42542;48.360;10.958;2023-02-21T06:05:53;13.37;;;5.10;;
56667;SDS011;42542;48.360;10.958;2023-02-21T06:08:55;15.95;;;4.97;;
56667;SDS011;42542;48.360;10.958;2023-02-21T06:11:57;12.23;;;4.70;;
56667;SDS011;42542;48.360;10.958;2023-02-21T06:14:59;11.80;;;4.63;;
56667;SDS011;42542;48.360;10.958;2023-02-21T06:18:01;13.27;;;4.97;;
56667;SDS011;42542;48.360;10.958;2023-02-21T06:21:04;12.60;;;4.97;;
56667;SDS011;42542;48.360;10.958;2023-02-21T06:24:06;12.13;;;4.85;;
56667;SDS011;42542;48.360;10.958;2023-02-21T06:27:09;14.73;;;5.17;;
56667;SDS011;42542;48.360;10.958;2023-02-21T06:30:13;13.55;;;4.97;;
56667;SDS011;42542;48.360;10.958;2023-02-21T06:33:14;15.05;;;5.28;;
56667;SDS011;42542;48.360;10.958;2023-02-21T06:36:21;13.13;;;4.73;;
56667;SDS011;42542;48.360;10.958;2023-02-21T06:39:25;13.45;;;4.82;;
56667;SDS011;42542;48.360;10.958;2023-02-21T06:42:28;17.55;;;5.47;;
56667;SDS011;42542;48.360;10.958;2023-02-21T06:45:30;12.52;;;4.97;;
56667;SDS011;42542;48.360;10.958;2023-02-21T06:48:32;15.95;;;5.28;;
56667;SDS011;42542;48.360;10.958;2023-02-21T06:51:35;12.23;;;5.03;;
56667;SDS011;42542;48.360;10.958;2023-02-21T06:54:38;13.43;;;4.82;;
56667;SDS011;42542;48.360;10.958;2023-02-21T06:57:40;15.30;;;5.23;;
56667;SDS011;42542;48.360;10.958;2023-02-21T07:00:42;13.18;;;5.07;;
56667;SDS011;42542;48.360;10.958;2023-02-21T07:03:44;13.93;;;5.28;;
56667;SDS011;42542;48.360;10.958;2023-02-21T07:06:48;13.97;;;4.83;;
56667;SDS011;42542;48.360;10.958;2023-02-21T07:09:50;12.80;;;5.18;;
56667;SDS011;42542;48.360;10.958;2023-02-21T07:12:53;14.80;;;5.35;;
56667;SDS011;42542;48.360;10.958;2023-02-21T07:15:54;15.13;;;5.68;;
56667;SDS011;42542;48.360;10.958;2023-02-21T07:18:57;12.40;;;5.15;;
56667;SDS011;42542;48.360;10.958;2023-02-21T07:21:59;16.38;;;5.70;;
56667;SDS011;42542;48.360;10.958;2023-02-21T07:25:01;17.55;;;7.18;;
56667;SDS011;42542;48.360;10.958;2023-02-21T07:28:04;20.37;;;7.10;;
56667;SDS011;42542;48.360;10.958;2023-02-21T07:31:06;16.83;;;6.70;;
56667;SDS011;42542;48.360;10.958;2023-02-21T07:34:08;15.50;;;5.68;;
56667;SDS011;42542;48.360;10.958;2023-02-21T07:37:11;15.73;;;6.23;;
56667;SDS011;42542;48.360;10.958;2023-02-21T07:40:13;18.77;;;5.72;;
56667;SDS011;42542;48.360;10.958;2023-02-21T07:43:16;16.45;;;6.10;;
56667;SDS011;42542;48.360;10.958;2023-02-21T07:46:17;15.00;;;5.70;;
56667;SDS011;42542;48.360;10.958;2023-02-21T07:49:20;14.35;;;4.93;;
56667;SDS011;42542;48.360;10.958;2023-02-21T07:52:22;15.43;;;5.63;;
56667;SDS011;42542;48.360;10.958;2023-02-21T07:55:24;13.05;;;5.40;;
56667;SDS011;42542;48.360;10.958;2023-02-21T07:58:26;12.77;;;4.93;;
56667;SDS011;42542;48.360;10.958;2023-02-21T08:01:29;16.05;;;5.45;;
56667;SDS011;42542;48.360;10.958;2023-02-21T08:04:31;12.80;;;5.20;;
56667;SDS011;42542;48.360;10.958;2023-02-21T08:07:35;14.00;;;4.90;;
56667;SDS011;42542;48.360;10.958;2023-02-21T08:10:37;12.05;;;4.78;;
56667;SDS011;42542;48.360;10.958;2023-02-21T08:13:39;13.98;;;5.00;;
56667;SDS011;42542;48.360;10.958;2023-02-21T08:16:41;13.50;;;4.95;;
56667;SDS011;42542;48.360;10.958;2023-02-21T08:19:44;14.32;;;4.90;;
56667;SDS011;42542;48.360;10.958;2023-02-21T08:22:45;15.48;;;5.00;;
56667;SDS011;42542;48.360;10.958;2023-02-21T08:25:48;12.90;;;4.60;;
56667;SDS011;42542;48.360;10.958;2023-02-21T08:28:50;11.27;;;4.37;;
56667;SDS011;42542;48.360;10.958;2023-02-21T08:31:52;11.23;;;4.25;;
56667;SDS011;42542;48.360;10.958;2023-02-21T08:34:54;11.68;;;4.65;;
56667;SDS011;42542;48.360;10.958;2023-02-21T08:37:56;17.63;;;4.03;;
56667;SDS011;42542;48.360;10.958;2023-02-21T08:41:04;10.00;;;3.80;;
56667;SDS011;42542;48.360;10.958;2023-02-21T08:44:07;10.48;;;4.15;;
56667;SDS011;42542;48.360;10.958;2023-02-21T08:47:11;9.43;;;3.60;;
56667;SDS011;42542;48.360;10.958;2023-02-21T08:50:13;9.13;;;3.53;;
56667;SDS011;42542;48.360;10.958;2023-02-21T08:53:15;9.80;;;3.53;;
56667;SDS011;42542;48.360;10.958;2023-02-21T08:56:18;8.82;;;3.80;;
56667;SDS011;42542;48.360;10.958;2023-02-21T08:59:21;9.40;;;3.03;;
56667;SDS011;42542;48.360;10.958;2023-02-21T09:02:23;9.23;;;3.47;;
56667;SDS011;42542;48.360;10.958;2023-02-21T09:05:26;9.30;;;3.28;;
56667;SDS011;42542;48.360;10.958;2023-02-21T09:08:29;10.70;;;3.30;;
56667;SDS011;42542;48.360;10.958;2023-02-21T09:11:35;8.55;;;3.13;;
56667;SDS011;42542;48.360;10.958;2023-02-21T09:14:39;11.70;;;3.28;;
56667;SDS011;42542;48.360;10.958;2023-02-21T09:17:42;8.48;;;2.90;;
56667;SDS011;42542;48.360;10.958;2023-02-21T09:20:44;8.05;;;2.97;;
56667;SDS011;42542;48.360;10.958;2023-02-21T09:23:54;8.25;;;3.10;;
56667;SDS011;42542;48.360;10.958;2023-02-21T09:26:58;9.52;;;2.78;;
56667;SDS011;42542;48.360;10.958;2023-02-21T09:30:07;8.87;;;3.17;;
56667;SDS011;42542;48.360;10.958;2023-02-21T09:33:14;8.43;;;3.20;;
56667;SDS011;42542;48.360;10.958;2023-02-21T09:36:16;10.50;;;3.10;;
56667;SDS011;42542;48.360;10.958;2023-02-21T09:39:24;9.03;;;2.80;;
56667;SDS011;42542;48.360;10.958;2023-02-21T09:42:27;8.10;;;3.00;;
56667;SDS011;42542;48.360;10.958;2023-02-21T09:45:31;10.10;;;3.10;;
56667;SDS011;42542;48.360;10.958;2023-02-21T09:48:35;9.82;;;3.10;;
56667;SDS011;42542;48.360;10.958;2023-02-21T09:51:37;8.65;;;2.58;;
56667;SDS011;42542;48.360;10.958;2023-02-21T09:54:42;8.43;;;2.70;;
56667;SDS011;42542;48.360;10.958;2023-02-21T09:57:51;6.78;;;2.60;;
56667;SDS011;42542;48.360;10.958;2023-02-21T10:00:55;8.00;;;2.13;;
56667;SDS011;42542;48.360;10.958;2023-02-21T10:04:12;8.15;;;2.30;;
56667;SDS011;42542;48.360;10.958;2023-02-21T10:07:53;7.50;;;2.00;;
56667;SDS011;42542;48.360;10.958;2023-02-21T10:14:36;5.55;;;1.70;;
56667;SDS011;42542;48.360;10.958;2023-02-21T10:17:55;5.60;;;1.60;;
56667;SDS011;42542;48.360;10.958;2023-02-21T10:20:59;5.63;;;1.63;;
56667;SDS011;42542;48.360;10.958;2023-02-21T10:24:10;6.63;;;1.88;;
56667;SDS011;42542;48.360;10.958;2023-02-21T10:27:19;5.30;;;1.70;;
56667;SDS011;42542;48.360;10.958;2023-02-21T10:30:26;5.80;;;1.70;;
56667;SDS011;42542;48.360;10.958;2023-02-21T10:33:32;6.97;;;1.60;;
56667;SDS011;42542;48.360;10.958;2023-02-21T10:36:37;7.07;;;1.77;;
56667;SDS011;42542;48.360;10.958;2023-02-21T10:39:41;6.30;;;1.70;;
56667;SDS011;42542;48.360;10.958;2023-02-21T10:42:51;5.67;;;1.60;;
56667;SDS011;42542;48.360;10.958;2023-02-21T10:49:24;6.35;;;1.77;;
56667;SDS011;42542;48.360;10.958;2023-02-21T10:52:45;6.97;;;2.00;;
56667;SDS011;42542;48.360;10.958;2023-02-21T10:56:17;5.45;;;1.80;;
56667;SDS011;42542;48.360;10.958;2023-02-21T10:59:30;5.50;;;1.60;;
56667;SDS011;42542;48.360;10.958;2023-02-21T11:02:35;6.50;;;2.00;;
56667;SDS011;42542;48.360;10.958;2023-02-21T11:05:46;6.33;;;1.43;;
56667;SDS011;42542;48.360;10.958;2023-02-21T11:08:50;5.32;;;1.60;;
56667;SDS011;42542;48.360;10.958;2023-02-21T11:12:03;4.90;;;1.40;;
56667;SDS011;42542;48.360;10.958;2023-02-21T11:15:14;4.40;;;1.40;;
56667;SDS011;42542;48.360;10.958;2023-02-21T11:18:22;4.85;;;1.50;;
56667;SDS011;42542;48.360;10.958;2023-02-21T11:21:25;6.85;;;1.60;;
56667;SDS011;42542;48.360;10.958;2023-02-21T11:24:27;4.85;;;1.45;;
56667;SDS011;42542;48.360;10.958;2023-02-21T11:27:29;5.90;;;1.90;;
56667;SDS011;42542;48.360;10.958;2023-02-21T11:30:37;4.97;;;1.35;;
56667;SDS011;42542;48.360;10.958;2023-02-21T11:33:53;8.75;;;1.33;;
56667;SDS011;42542;48.360;10.958;2023-02-21T11:37:00;4.93;;;1.23;;
56667;SDS011;42542;48.360;10.958;2023-02-21T11:40:04;5.25;;;1.60;;
56667;SDS011;42542;48.360;10.958;2023-02-21T11:56:25;5.45;;;1.50;;
56667;SDS011;42542;48.360;10.958;2023-02-21T12:12:44;5.17;;;1.40;;
56667;SDS011;42542;48.360;10.958;2023-02-21T12:23:18;16.00;;;1.60;;
56667;SDS011;42542;48.360;10.958;2023-02-21T12:26:41;5.57;;;1.30;;
56667;SDS011;42542;48.360;10.958;2023-02-21T12:49:14;4.27;;;1.20;;
56667;SDS011;42542;48.360;10.958;2023-02-21T12:52:25;4.55;;;1.20;;
56667;SDS011;42542;48.360;10.958;2023-02-21T12:58:42;4.88;;;1.55;;
56667;SDS011;42542;48.360;10.958;2023-02-21T13:01:47;4.90;;;1.33;;
56667;SDS011;42542;48.360;10.958;2023-02-21T13:04:54;4.88;;;1.27;;
56667;SDS011;42542;48.360;10.958;2023-02-21T13:08:02;4.15;;;1.20;;
56667;SDS011;42542;48.360;10.958;2023-02-21T13:11:13;4.65;;;1.15;;
56667;SDS011;42542;48.360;10.958;2023-02-21T13:14:23;4.47;;;1.30;;
56667;SDS011;42542;48.360;10.958;2023-02-21T13:17:29;4.80;;;1.30;;
56667;SDS011;42542;48.360;10.958;2023-02-21T13:20:35;3.92;;;1.17;;
56667;SDS011;42542;48.360;10.958;2023-02-21T13:23:58;4.33;;;1.20;;
56667;SDS011;42542;48.360;10.958;2023-02-21T13:27:10;4.63;;;1.30;;
56667;SDS011;42542;48.360;10.958;2023-02-21T13:33:41;4.80;;;1.42;;
56667;SDS011;42542;48.360;10.958;2023-02-21T13:36:50;4.70;;;1.50;;
56667;SDS011;42542;48.360;10.958;2023-02-21T13:43:32;4.90;;;1.40;;
56667;SDS011;42542;48.360;10.958;2023-02-21T13:52:52;3.97;;;1.30;;
56667;SDS011;42542;48.360;10.958;2023-02-21T13:59:30;4.80;;;1.33;;
56667;SDS011;42542;48.360;10.958;2023-02-21T14:02:34;5.83;;;1.60;;
56667;SDS011;42542;48.360;10.958;2023-02-21T14:08:53;4.88;;;1.25;;
56667;SDS011;42542;48.360;10.958;2023-02-21T14:11:58;5.20;;;1.50;;
56667;SDS011;42542;48.360;10.958;2023-02-21T14:15:04;5.77;;;1.30;;
56667;SDS011;42542;48.360;10.958;2023-02-21T14:21:42;4.72;;;1.27;;
56667;SDS011;42542;48.360;10.958;2023-02-21T14:24:47;4.93;;;1.40;;
56667;SDS011;42542;48.360;10.958;2023-02-21T14:27:51;4.93;;;1.38;;
56667;SDS011;42542;48.360;10.958;2023-02-21T14:31:01;5.32;;;1.27;;
56667;SDS011;42542;48.360;10.958;2023-02-21T14:34:03;4.32;;;1.20;;
56667;SDS011;42542;48.360;10.958;2023-02-21T15:10:39;4.50;;;1.40;;
56667;SDS011;42542;48.360;10.958;2023-02-21T15:13:42;4.68;;;1.05;;
56667;SDS011;42542;48.360;10.958;2023-02-21T15:16:44;5.47;;;1.00;;
56667;SDS011;42542;48.360;10.958;2023-02-21T15:19:59;4.82;;;1.10;;
56667;SDS011;42542;48.360;10.958;2023-02-21T15:26:21;3.58;;;0.85;;
56667;SDS011;42542;48.360;10.958;2023-02-21T15:29:24;3.50;;;1.00;;
56667;SDS011;42542;48.360;10.958;2023-02-21T15:32:26;3.67;;;1.00;;
56667;SDS011;42542;48.360;10.958;2023-02-21T15:35:50;2.95;;;0.80;;
56667;SDS011;42542;48.360;10.958;2023-02-21T15:38:51;4.93;;;1.00;;
56667;SDS011;42542;48.360;10.958;2023-02-21T15:41:58;3.80;;;1.00;;
56667;SDS011;42542;48.360;10.958;2023-02-21T15:45:03;3.63;;;0.90;;
56667;SDS011;42542;48.360;10.958;2023-02-21T15:48:07;4.57;;;1.30;;
56667;SDS011;42542;48.360;10.958;2023-02-21T15:51:09;4.07;;;1.10;;
56667;SDS011;42542;48.360;10.958;2023-02-21T15:57:21;3.73;;;1.10;;
56667;SDS011;42542;48.360;10.958;2023-02-21T16:00:25;5.55;;;1.45;;
56667;SDS011;42542;48.360;10.958;2023-02-21T16:03:33;3.90;;;1.20;;
56667;SDS011;42542;48.360;10.958;2023-02-21T16:06:43;4.22;;;1.13;;
56667;SDS011;42542;48.360;10.958;2023-02-21T16:09:56;5.28;;;1.00;;
56667;SDS011;42542;48.360;10.958;2023-02-21T16:13:01;4.33;;;1.03;;
56667;SDS011;42542;48.360;10.958;2023-02-21T16:16:02;6.13;;;1.10;;
56667;SDS011;42542;48.360;10.958;2023-02-21T16:19:05;5.35;;;1.02;;
56667;SDS011;42542;48.360;10.958;2023-02-21T16:25:21;5.53;;;1.20;;
56667;SDS011;42542;48.360;10.958;2023-02-21T16:28:25;4.22;;;1.20;;
56667;SDS011;42542;48.360;10.958;2023-02-21T16:31:29;5.82;;;1.42;;
56667;SDS011;42542;48.360;10.958;2023-02-21T16:34:33;6.43;;;1.60;;
56667;SDS011;42542;48.360;10.958;2023-02-21T16:37:36;7.28;;;2.03;;
56667;SDS011;42542;48.360;10.958;2023-02-21T16:40:38;6.35;;;2.28;;
56667;SDS011;42542;48.360;10.958;2023-02-21T16:43:39;5.88;;;2.33;;
56667;SDS011;42542;48.360;10.958;2023-02-21T16:46:41;7.53;;;2.42;;
56667;SDS011;42542;48.360;10.958;2023-02-21T16:49:44;8.97;;;2.63;;
56667;SDS011;42542;48.360;10.958;2023-02-21T16:52:45;7.72;;;2.70;;
56667;SDS011;42542;48.360;10.958;2023-02-21T16:55:47;7.13;;;3.15;;
56667;SDS011;42542;48.360;10.958;2023-02-21T16:58:52;8.25;;;3.15;;
56667;SDS011;42542;48.360;10.958;2023-02-21T17:01:56;9.20;;;3.67;;
56667;SDS011;42542;48.360;10.958;2023-02-21T17:04:58;8.55;;;3.70;;
56667;SDS011;42542;48.360;10.958;2023-02-21T17:08:00;10.68;;;4.13;;
56667;SDS011;42542;48.360;10.958;2023-02-21T17:11:02;9.88;;;4.18;;
56667;SDS011;42542;48.360;10.958;2023-02-21T17:14:04;9.27;;;3.43;;
56667;SDS011;42542;48.360;10.958;2023-02-21T17:17:06;9.63;;;3.60;;
56667;SDS011;42542;48.360;10.958;2023-02-21T17:20:09;10.02;;;3.60;;
56667;SDS011;42542;48.360;10.958;2023-02-21T17:23:16;11.48;;;3.42;;
56667;SDS011;42542;48.360;10.958;2023-02-21T17:26:18;9.77;;;3.47;;
56667;SDS011;42542;48.360;10.958;2023-02-21T17:29:20;9.05;;;3.22;;
56667;SDS011;42542;48.360;10.958;2023-02-21T17:32:22;8.30;;;3.00;;
56667;SDS011;42542;48.360;10.958;2023-02-21T17:35:24;8.77;;;3.00;;
56667;SDS011;42542;48.360;10.958;2023-02-21T17:38:25;8.90;;;2.88;;
56667;SDS011;42542;48.360;10.958;2023-02-21T17:41:27;10.68;;;3.30;;
56667;SDS011;42542;48.360;10.958;2023-02-21T17:44:29;10.95;;;3.45;;
56667;SDS011;42542;48.360;10.958;2023-02-21T17:47:30;9.88;;;3.35;;
56667;SDS011;42542;48.360;10.958;2023-02-21T17:50:33;12.38;;;3.70;;
56667;SDS011;42542;48.360;10.958;2023-02-21T17:53:34;14.73;;;3.63;;
56667;SDS011;42542;48.360;10.958;2023-02-21T17:56:36;10.77;;;3.60;;
56667;SDS011;42542;48.360;10.958;2023-02-21T17:59:38;13.00;;;3.80;;
56667;SDS011;42542;48.360;10.958;2023-02-21T18:02:40;13.30;;;3.80;;
56667;SDS011;42542;48.360;10.958;2023-02-21T18:05:41;10.13;;;3.60;;
56667;SDS011;42542;48.360;10.958;2023-02-21T18:08:43;10.98;;;3.47;;
56667;SDS011;42542;48.360;10.958;2023-02-21T18:11:47;10.68;;;3.35;;
56667;SDS011;42542;48.360;10.958;2023-02-21T18:14:50;10.88;;;3.47;;
56667;SDS011;42542;48.360;10.958;2023-02-21T18:17:52;11.25;;;3.60;;
56667;SDS011;42542;48.360;10.958;2023-02-21T18:20:54;11.57;;;3.80;;
56667;SDS011;42542;48.360;10.958;2023-02-21T18:23:57;11.35;;;3.58;;
56667;SDS011;42542;48.360;10.958;2023-02-21T18:26:59;11.17;;;3.63;;
56667;SDS011;42542;48.360;10.958;2023-02-21T18:30:00;16.77;;;4.70;;
56667;SDS011;42542;48.360;10.958;2023-02-21T18:33:03;13.20;;;4.75;;
56667;SDS011;42542;48.360;10.958;2023-02-21T18:36:07;15.90;;;5.60;;
56667;SDS011;42542;48.360;10.958;2023-02-21T18:39:09;20.50;;;5.80;;
56667;SDS011;42542;48.360;10.958;2023-02-21T18:42:11;15.75;;;6.00;;
56667;SDS011;42542;48.360;10.958;2023-02-21T18:45:12;15.48;;;6.15;;
56667;SDS011;42542;48.360;10.958;2023-02-21T18:48:14;16.55;;;6.25;;
56667;SDS011;42542;48.360;10.958;2023-02-21T18:51:20;17.17;;;6.60;;
56667;SDS011;42542;48.360;10.958;2023-02-21T18:54:21;16.73;;;7.13;;
56667;SDS011;42542;48.360;10.958;2023-02-21T18:57:23;19.40;;;7.57;;
56667;SDS011;42542;48.360;10.958;2023-02-21T19:00:25;15.82;;;6.70;;
56667;SDS011;42542;48.360;10.958;2023-02-21T19:03:30;17.60;;;6.90;;
56667;SDS011;42542;48.360;10.958;2023-02-21T19:06:32;18.27;;;6.70;;
56667;SDS011;42542;48.360;10.958;2023-02-21T19:09:34;15.65;;;6.53;;
56667;SDS011;42542;48.360;10.958;2023-02-21T19:12:38;16.88;;;6.45;;
56667;SDS011;42542;48.360;10.958;2023-02-21T19:15:40;17.30;;;6.90;;
56667;SDS011;42542;48.360;10.958;2023-02-21T19:18:41;19.48;;;6.82;;
56667;SDS011;42542;48.360;10.958;2023-02-21T19:21:44;19.23;;;7.25;;
56667;SDS011;42542;48.360;10.958;2023-02-21T19:24:46;17.05;;;7.10;;
56667;SDS011;42542;48.360;10.958;2023-02-21T19:27:48;17.97;;;7.37;;
56667;SDS011;42542;48.360;10.958;2023-02-21T19:30:50;16.65;;;7.18;;
56667;SDS011;42542;48.360;10.958;2023-02-21T19:33:51;16.25;;;6.97;;
56667;SDS011;42542;48.360;10.958;2023-02-21T19:36:53;17.73;;;7.30;;
56667;SDS011;42542;48.360;10.958;2023-02-21T19:39:55;17.33;;;6.85;;
56667;SDS011;42542;48.360;10.958;2023-02-21T19:42:57;16.65;;;7.63;;
56667;SDS011;42542;48.360;10.958;2023-02-21T19:45:58;18.08;;;7.43;;
56667;SDS011;42542;48.360;10.958;2023-02-21T19:49:03;15.25;;;7.13;;
56667;SDS011;42542;48.360;10.958;2023-02-21T19:52:07;16.98;;;7.22;;
56667;SDS011;42542;48.360;10.958;2023-02-21T19:55:09;16.52;;;7.25;;
56667;SDS011;42542;48.360;10.958;2023-02-21T19:58:11;21.53;;;7.73;;
56667;SDS011;42542;48.360;10.958;2023-02-21T20:01:13;22.23;;;8.88;;
56667;SDS011;42542;48.360;10.958;2023-02-21T20:04:15;18.67;;;7.93;;
56667;SDS011;42542;48.360;10.958;2023-02-21T20:07:19;20.07;;;8.17;;
56667;SDS011;42542;48.360;10.958;2023-02-21T20:10:21;22.90;;;8.85;;
56667;SDS011;42542;48.360;10.958;2023-02-21T20:13:26;29.15;;;12.23;;
56667;SDS011;42542;48.360;10.958;2023-02-21T20:16:27;29.90;;;12.55;;
56667;SDS011;42542;48.360;10.958;2023-02-21T20:19:29;32.15;;;13.30;;
56667;SDS011;42542;48.360;10.958;2023-02-21T20:22:32;34.42;;;15.38;;
56667;SDS011;42542;48.360;10.958;2023-02-21T20:25:38;33.30;;;14.77;;
56667;SDS011;42542;48.360;10.958;2023-02-21T20:28:42;33.00;;;13.33;;
56667;SDS011;42542;48.360;10.958;2023-02-21T20:31:44;27.60;;;11.68;;
56667;SDS011;42542;48.360;10.958;2023-02-21T20:34:48;22.98;;;10.63;;
56667;SDS011;42542;48.360;10.958;2023-02-21T20:37:56;24.67;;;10.67;;
56667;SDS011;42542;48.360;10.958;2023-02-21T20:41:02;26.27;;;11.90;;
56667;SDS011;42542;48.360;10.958;2023-02-21T20:44:04;29.08;;;12.50;;
56667;SDS011;42542;48.360;10.958;2023-02-21T20:47:06;27.20;;;11.65;;
56667;SDS011;42542;48.360;10.958;2023-02-21T20:50:10;27.95;;;11.70;;